Terminal Aerodrome Forecast
Issued by NWS Jackson, KY

Home | Current Version | Previous Version | Text Only | Print | Product List | Glossary On
Versions: 1 2 3 4 5 6 7 8 9 10 11 12 13 14 15 16 17
000
FTUS43 KJKL 211300 AAB
TAFJKL
TAF AMD
KJKL 211301Z 2113/2212 VRB03KT 6SM BR SCT035
      TEMPO 2113/2114 VRB03KT OVC004
     FM211400 25003KT P6SM BKN035 BKN050
     FM211800 30006KT P6SM BKN040
     FM220600 33003KT P6SM SCT030=

USA.gov is the U.S. government's official web portal to all federal, state and local government web resources and services.